createdAt,value
2024-03-06T00:00:41.554Z,94.16
2024-03-06T00:01:42.820Z,93.95
2024-03-06T00:02:42.352Z,93.91
2024-03-06T00:03:42.635Z,93.70
2024-03-06T00:04:42.988Z,93.49
2024-03-06T00:05:43.328Z,93.23
2024-03-06T00:06:43.688Z,93.33
2024-03-06T00:07:44.054Z,93.33
2024-03-06T00:08:44.415Z,93.43
2024-03-06T00:09:44.725Z,93.54
2024-03-06T00:10:45.130Z,93.23
2024-03-06T00:11:45.486Z,93.43
2024-03-06T00:12:45.811Z,93.01
2024-03-06T00:13:46.241Z,93.01
2024-03-06T00:14:46.545Z,93.01
2024-03-06T00:15:46.903Z,93.01
2024-03-06T00:16:47.259Z,92.91
2024-03-06T00:17:48.210Z,93.01
2024-03-06T00:18:47.953Z,92.91
2024-03-06T00:19:48.337Z,93.01
2024-03-06T00:20:48.723Z,92.91
2024-03-06T00:21:49.031Z,92.70
2024-03-06T00:22:49.440Z,92.39
2024-03-06T00:23:49.708Z,92.29
2024-03-06T00:24:50.097Z,92.29
2024-03-06T00:25:50.522Z,92.08
2024-03-06T00:26:50.755Z,92.18
2024-03-06T00:27:51.093Z,92.12
2024-03-06T00:28:51.466Z,92.43
2024-03-06T00:29:51.839Z,92.49
2024-03-06T00:30:52.221Z,92.29
2024-03-06T00:31:52.570Z,92.33
2024-03-06T00:32:52.954Z,92.33
2024-03-06T00:33:53.292Z,92.64
2024-03-06T00:34:53.658Z,92.89
2024-03-06T00:35:54.020Z,93.20
2024-03-06T00:36:54.347Z,93.20
2024-03-06T00:37:54.826Z,93.66
2024-03-06T00:38:55.090Z,94.70
2024-03-06T00:39:55.410Z,95.64
2024-03-06T00:40:55.780Z,95.54
2024-03-06T00:41:56.237Z,95.33
2024-03-06T00:42:56.459Z,95.43
2024-03-06T00:43:56.859Z,95.50
2024-03-06T00:44:57.236Z,95.39
2024-03-06T00:45:57.572Z,95.25
2024-03-06T00:46:57.946Z,94.72
2024-03-06T00:47:58.287Z,94.62
2024-03-06T00:48:58.617Z,94.31
2024-03-06T00:49:59.083Z,94.26
2024-03-06T00:50:59.311Z,94.06
2024-03-06T00:51:59.648Z,93.74
2024-03-06T00:53:00.006Z,93.64
2024-03-06T00:54:00.404Z,93.43
2024-03-06T00:55:00.729Z,93.43
2024-03-06T00:56:01.155Z,93.33
2024-03-06T00:57:01.375Z,93.64
2024-03-06T00:58:01.756Z,93.54
2024-03-06T00:59:02.144Z,93.85
2024-03-06T01:00:02.461Z,93.95
2024-03-06T01:01:02.935Z,93.64
2024-03-06T01:02:03.196Z,93.43
2024-03-06T01:03:03.514Z,93.54
2024-03-06T01:04:03.916Z,93.43
2024-03-06T01:05:04.272Z,93.39
2024-03-06T01:06:04.636Z,93.29
2024-03-06T01:07:04.965Z,92.91
2024-03-06T01:08:05.356Z,93.12
2024-03-06T01:09:05.688Z,93.64
2024-03-06T01:10:06.013Z,93.70
2024-03-06T01:11:06.659Z,93.49
2024-03-06T01:12:06.722Z,93.18
2024-03-06T01:13:07.061Z,93.18
2024-03-06T01:14:07.455Z,93.23
2024-03-06T01:15:07.757Z,93.33
2024-03-06T01:16:08.168Z,93.43
2024-03-06T01:17:08.505Z,93.58
2024-03-06T01:18:08.880Z,93.79
2024-03-06T01:19:09.179Z,93.73
2024-03-06T01:20:09.600Z,94.39
2024-03-06T01:21:09.968Z,95.58
2024-03-06T01:22:10.387Z,96.42
2024-03-06T01:23:10.760Z,96.52
2024-03-06T01:24:11.021Z,96.67
2024-03-06T01:25:11.372Z,97.09
2024-03-06T01:26:11.931Z,97.04
2024-03-06T01:27:12.080Z,97.14
2024-03-06T01:28:12.460Z,96.69
2024-03-06T01:29:12.903Z,96.31
2024-03-06T01:30:13.160Z,96.48
2024-03-06T01:31:13.488Z,96.42
2024-03-06T01:32:13.891Z,96.69
2024-03-06T01:33:14.185Z,96.69
2024-03-06T01:34:14.500Z,96.58
2024-03-06T01:35:14.965Z,96.26
2024-03-06T01:36:15.245Z,96.16
2024-03-06T01:37:15.621Z,96.16
2024-03-06T01:38:15.977Z,95.64
2024-03-06T01:39:16.268Z,95.54
2024-03-06T01:40:16.652Z,95.64
2024-03-06T01:41:17.105Z,95.60
2024-03-06T01:42:17.373Z,95.50
2024-03-06T01:43:17.763Z,95.60
2024-03-06T01:44:18.140Z,95.50
2024-03-06T01:45:18.449Z,95.18
2024-03-06T01:46:18.847Z,94.93
2024-03-06T01:47:19.294Z,94.82
2024-03-06T01:48:19.565Z,94.82
2024-03-06T01:49:28.468Z,94.72
2024-03-06T01:50:20.293Z,94.72
2024-03-06T01:51:20.608Z,95.14
2024-03-06T01:52:20.994Z,94.93
2024-03-06T01:53:21.287Z,94.93
2024-03-06T01:54:21.685Z,95.14
2024-03-06T01:55:21.999Z,95.09
2024-03-06T01:56:22.461Z,94.99
2024-03-06T01:57:22.726Z,94.78
2024-03-06T01:58:23.091Z,94.47
2024-03-06T01:59:31.938Z,94.37
2024-03-06T02:00:23.804Z,94.47
2024-03-06T02:01:24.260Z,94.78
2024-03-06T02:02:24.490Z,94.47
2024-03-06T02:03:24.874Z,94.47
2024-03-06T02:04:25.234Z,94.26
2024-03-06T02:05:25.667Z,94.68
2024-03-06T02:06:26.040Z,94.68
2024-03-06T02:07:26.289Z,94.64
2024-03-06T02:08:26.661Z,94.74
2024-03-06T02:09:27.031Z,94.95
2024-03-06T02:10:27.386Z,95.05
2024-03-06T02:11:27.801Z,95.15
2024-03-06T02:12:28.131Z,94.80
2024-03-06T02:13:28.454Z,94.74
2024-03-06T02:14:28.807Z,94.74
2024-03-06T02:15:29.124Z,94.90
2024-03-06T02:16:29.521Z,94.80
2024-03-06T02:17:29.863Z,94.59
2024-03-06T02:18:30.255Z,94.32
2024-03-06T02:19:30.740Z,94.12
2024-03-06T02:20:30.946Z,93.74
2024-03-06T02:21:31.361Z,93.93
2024-03-06T02:22:31.622Z,94.70
2024-03-06T02:23:32.038Z,96.11
2024-03-06T02:24:32.349Z,96.46
2024-03-06T02:25:32.794Z,96.98
2024-03-06T02:26:33.138Z,97.19
2024-03-06T02:27:33.582Z,97.30
2024-03-06T02:28:33.840Z,97.65
2024-03-06T02:29:34.167Z,97.97
2024-03-06T02:30:34.552Z,98.34
2024-03-06T02:31:34.993Z,98.13
2024-03-06T02:32:35.258Z,98.02
2024-03-06T02:33:35.583Z,97.61
2024-03-06T02:34:35.981Z,97.50
2024-03-06T02:35:36.421Z,97.86
2024-03-06T02:36:36.760Z,97.92
2024-03-06T02:37:37.056Z,98.07
2024-03-06T02:38:37.378Z,98.59
2024-03-06T02:39:37.730Z,98.59
2024-03-06T02:40:38.101Z,98.38
2024-03-06T02:41:38.415Z,98.28
2024-03-06T02:42:38.791Z,98.07
2024-03-06T02:43:39.156Z,97.91
2024-03-06T02:44:39.514Z,97.91
2024-03-06T02:45:39.897Z,98.22
2024-03-06T02:46:40.287Z,98.26
2024-03-06T02:47:40.616Z,98.37
2024-03-06T02:48:40.972Z,98.79
2024-03-06T02:49:41.354Z,98.68
2024-03-06T02:50:41.721Z,99.04
2024-03-06T02:51:42.058Z,99.66
2024-03-06T02:52:42.467Z,99.88
2024-03-06T02:53:42.761Z,99.99
2024-03-06T02:54:43.144Z,99.99
2024-03-06T02:55:43.558Z,99.99
2024-03-06T02:56:43.900Z,99.79
2024-03-06T02:57:44.228Z,99.26
2024-03-06T02:58:44.647Z,98.85
2024-03-06T02:59:44.944Z,98.32
2024-03-06T03:00:45.450Z,97.91
2024-03-06T03:01:45.678Z,97.70
2024-03-06T03:02:46.040Z,97.70
2024-03-06T03:03:46.381Z,97.91
2024-03-06T03:04:46.771Z,98.16
2024-03-06T03:05:47.163Z,98.43
2024-03-06T03:06:47.435Z,98.32
2024-03-06T03:07:47.810Z,98.53
2024-03-06T03:08:48.178Z,98.53
2024-03-06T03:09:48.520Z,98.43
2024-03-06T03:10:48.888Z,98.53
2024-03-06T03:11:49.203Z,98.63
2024-03-06T03:12:49.541Z,98.68
2024-03-06T03:13:49.948Z,98.99
2024-03-06T03:14:50.265Z,98.79
2024-03-06T03:15:50.703Z,99.10
2024-03-06T03:16:50.993Z,99.20
2024-03-06T03:17:51.395Z,98.99
2024-03-06T03:18:51.713Z,98.79
2024-03-06T03:19:52.079Z,98.58
2024-03-06T03:20:52.449Z,98.53
2024-03-06T03:21:52.783Z,98.32
2024-03-06T03:22:53.202Z,98.11
2024-03-06T03:23:53.540Z,97.70
2024-03-06T03:24:53.912Z,97.70
2024-03-06T03:25:54.292Z,97.70
2024-03-06T03:26:55.286Z,97.59
2024-03-06T03:27:54.949Z,97.49
2024-03-06T03:28:55.326Z,97.59
2024-03-06T03:29:55.627Z,97.44
2024-03-06T03:30:56.007Z,97.24
2024-03-06T03:31:56.432Z,96.76
2024-03-06T03:32:56.780Z,96.44
2024-03-06T03:33:57.077Z,96.44
2024-03-06T03:34:57.524Z,96.34
2024-03-06T03:35:57.843Z,96.09
2024-03-06T03:36:58.143Z,96.19
2024-03-06T03:37:58.521Z,96.03
2024-03-06T03:38:58.878Z,95.82
2024-03-06T03:39:59.212Z,96.13
2024-03-06T03:40:59.615Z,96.23
2024-03-06T03:41:59.904Z,96.66
2024-03-06T03:43:00.269Z,96.76
2024-03-06T03:44:00.681Z,96.76
2024-03-06T03:45:01.055Z,96.44
2024-03-06T03:46:01.400Z,96.97
2024-03-06T03:47:01.762Z,96.76
2024-03-06T03:48:02.079Z,96.76
2024-03-06T03:49:02.490Z,96.44
2024-03-06T03:50:10.044Z,96.44
2024-03-06T03:51:03.183Z,96.34
2024-03-06T03:52:03.507Z,96.66
2024-03-06T03:53:03.964Z,96.97
2024-03-06T03:54:04.206Z,96.91
2024-03-06T03:55:04.585Z,97.49
2024-03-06T03:56:05.826Z,97.28
2024-03-06T03:57:05.249Z,97.07
2024-03-06T03:58:05.628Z,97.28
2024-03-06T03:59:06.025Z,97.17
2024-03-06T04:00:06.325Z,97.13
2024-03-06T04:01:06.744Z,96.71
2024-03-06T04:02:07.110Z,96.44
2024-03-06T04:03:07.432Z,96.23
2024-03-06T04:04:07.775Z,96.76
2024-03-06T04:05:08.179Z,96.97
2024-03-06T04:06:08.551Z,96.97
2024-03-06T04:07:08.854Z,96.34
2024-03-06T04:08:09.314Z,96.34
2024-03-06T04:09:09.588Z,96.13
2024-03-06T04:10:09.926Z,95.72
2024-03-06T04:11:10.377Z,96.23
2024-03-06T04:12:10.779Z,96.13
2024-03-06T04:13:11.009Z,95.82
2024-03-06T04:14:11.421Z,95.97
2024-03-06T04:15:11.753Z,95.97
2024-03-06T04:16:12.208Z,95.97
2024-03-06T04:17:12.679Z,95.97
2024-03-06T04:18:12.894Z,96.07
2024-03-06T04:19:13.218Z,96.33
2024-03-06T04:20:13.806Z,96.43
2024-03-06T04:21:13.904Z,96.70
2024-03-06T04:22:14.255Z,96.70
2024-03-06T04:23:14.679Z,96.80
2024-03-06T04:24:14.943Z,96.59
2024-03-06T04:25:15.344Z,96.49
2024-03-06T04:26:15.798Z,96.49
2024-03-06T04:27:16.034Z,96.44
2024-03-06T04:28:16.388Z,96.23
2024-03-06T04:29:16.781Z,96.03
2024-03-06T04:30:17.068Z,95.92
2024-03-06T04:31:17.414Z,95.72
2024-03-06T04:32:17.780Z,95.86
2024-03-06T04:33:18.080Z,95.82
2024-03-06T04:34:18.454Z,95.55
2024-03-06T04:35:18.855Z,95.55
2024-03-06T04:36:19.205Z,96.07
2024-03-06T04:37:19.508Z,96.07
2024-03-06T04:38:19.918Z,96.17
2024-03-06T04:39:20.191Z,96.28
2024-03-06T04:40:20.585Z,96.70
2024-03-06T04:41:21.012Z,96.80
2024-03-06T04:42:21.263Z,96.59
2024-03-06T04:43:21.670Z,96.44
2024-03-06T04:44:22.025Z,96.23
2024-03-06T04:45:22.326Z,96.03
2024-03-06T04:46:22.742Z,95.82
2024-03-06T04:47:23.052Z,95.61
2024-03-06T04:48:23.518Z,95.61
2024-03-06T04:49:23.769Z,95.55
2024-03-06T04:50:24.222Z,95.97
2024-03-06T04:51:24.524Z,95.86
2024-03-06T04:52:24.881Z,96.07
2024-03-06T04:53:25.273Z,96.17
2024-03-06T04:54:25.572Z,96.03
2024-03-06T04:55:25.928Z,96.07
2024-03-06T04:56:26.298Z,96.17
2024-03-06T04:57:26.682Z,96.38
2024-03-06T04:58:26.960Z,96.38
2024-03-06T04:59:27.302Z,96.70
2024-03-06T05:00:27.627Z,96.76
2024-03-06T05:01:28.186Z,96.97
2024-03-06T05:02:28.368Z,96.86
2024-03-06T05:58:18.837Z,98.21
2024-03-06T05:58:57.126Z,97.89
2024-03-06T05:59:57.304Z,97.47
2024-03-06T06:00:57.720Z,97.27
2024-03-06T06:01:57.763Z,97.05
2024-03-06T06:02:58.054Z,97.05
2024-03-06T06:03:58.350Z,97.20
2024-03-06T06:05:11.646Z,97.52
2024-03-06T06:05:59.155Z,97.83
2024-03-06T06:06:58.985Z,98.25
2024-03-06T06:07:59.204Z,98.35
2024-03-06T06:08:59.471Z,98.35
2024-03-06T06:09:59.638Z,98.77
2024-03-06T06:11:00.028Z,98.88
2024-03-06T06:12:00.062Z,99.15
2024-03-06T06:13:00.171Z,98.93
2024-03-06T06:14:00.350Z,98.58
2024-03-06T06:15:00.538Z,98.26
2024-03-06T06:16:00.744Z,97.95
2024-03-06T06:17:00.913Z,97.64
2024-03-06T06:18:01.284Z,97.43
2024-03-06T06:19:01.224Z,97.22
2024-03-06T06:20:01.484Z,97.22
2024-03-06T06:21:01.597Z,97.01
2024-03-06T06:22:01.747Z,96.91
2024-03-06T06:23:01.984Z,96.59
2024-03-06T06:24:02.199Z,96.38
2024-03-06T06:25:02.380Z,96.28
2024-03-06T06:26:02.643Z,96.53
2024-03-06T06:27:02.976Z,96.95
2024-03-06T06:28:03.023Z,97.22
2024-03-06T06:29:03.246Z,97.22
2024-03-06T06:30:05.431Z,97.22
2024-03-06T06:31:03.585Z,96.80
2024-03-06T06:32:03.768Z,96.59
2024-03-06T06:33:04.025Z,96.49
2024-03-06T06:34:04.078Z,96.80
2024-03-06T06:35:04.341Z,96.91
2024-03-06T06:36:04.510Z,96.91
2024-03-06T06:37:04.576Z,97.49
2024-03-06T06:38:04.856Z,97.38
2024-03-06T06:39:06.101Z,96.97
2024-03-06T06:40:05.337Z,96.97
2024-03-06T06:41:05.588Z,97.07
2024-03-06T06:42:05.707Z,97.03
2024-03-06T06:43:05.913Z,96.71
2024-03-06T06:44:06.077Z,96.55
2024-03-06T06:45:06.251Z,96.13
2024-03-06T06:46:06.527Z,96.13
2024-03-06T06:47:06.626Z,96.44
2024-03-06T06:48:06.829Z,96.28
2024-03-06T06:49:07.103Z,96.70
2024-03-06T06:50:07.540Z,96.91
2024-03-06T06:51:07.661Z,96.74
2024-03-06T06:52:07.808Z,96.84
2024-03-06T06:53:08.084Z,97.27
2024-03-06T06:54:08.248Z,97.47
2024-03-06T06:55:08.587Z,97.27
2024-03-06T06:56:08.966Z,97.22
2024-03-06T06:57:09.139Z,96.80
2024-03-06T06:58:09.438Z,96.53
2024-03-06T06:59:09.643Z,96.70
2024-03-06T07:00:09.911Z,96.80
2024-03-06T07:01:10.182Z,96.66
2024-03-06T07:02:10.334Z,96.66
2024-03-06T07:03:10.531Z,96.34
2024-03-06T07:04:10.661Z,96.23
2024-03-06T07:05:10.991Z,96.40
2024-03-06T07:06:11.058Z,96.40
2024-03-06T07:07:11.248Z,96.19
2024-03-06T07:08:11.515Z,96.19
2024-03-06T07:09:11.684Z,96.09
2024-03-06T07:10:11.860Z,96.25
2024-03-06T07:11:12.100Z,96.56
2024-03-06T07:12:12.493Z,96.67
2024-03-06T07:13:12.558Z,97.14
2024-03-06T07:14:12.761Z,97.31
2024-03-06T07:15:12.862Z,97.41
2024-03-06T07:16:13.098Z,97.47
2024-03-06T07:17:13.307Z,97.47
2024-03-06T07:18:13.424Z,97.64
2024-03-06T07:19:13.607Z,97.64
2024-03-06T07:20:13.891Z,97.74
2024-03-06T07:21:14.025Z,97.91
2024-03-06T07:22:14.136Z,97.80
2024-03-06T07:23:14.476Z,97.86
2024-03-06T07:24:14.657Z,97.75
2024-03-06T07:25:14.804Z,97.81
2024-03-06T07:26:15.025Z,97.71
2024-03-06T07:27:15.150Z,98.33
2024-03-06T07:28:15.310Z,98.44
2024-03-06T07:29:15.535Z,98.19
2024-03-06T07:30:15.711Z,98.19
2024-03-06T07:31:15.901Z,98.39
2024-03-06T07:32:16.081Z,98.29
2024-03-06T07:33:16.289Z,98.08
2024-03-06T07:34:16.456Z,98.24
2024-03-06T07:35:16.650Z,98.14
2024-03-06T07:36:16.772Z,97.93
2024-03-06T07:37:16.939Z,97.77
2024-03-06T07:38:17.149Z,98.03
2024-03-06T07:39:17.298Z,98.03
2024-03-06T07:40:17.486Z,97.83
2024-03-06T07:41:17.784Z,98.14
2024-03-06T07:42:17.835Z,97.99
2024-03-06T07:43:18.161Z,97.62
2024-03-06T07:44:18.458Z,97.78
2024-03-06T07:45:18.528Z,97.72
2024-03-06T07:46:18.732Z,97.78
2024-03-06T07:47:18.982Z,97.58
2024-03-06T07:48:19.092Z,97.68
2024-03-06T07:49:19.323Z,97.53
2024-03-06T07:50:20.523Z,97.02
2024-03-06T07:51:19.734Z,96.91
2024-03-06T07:52:20.024Z,97.12
2024-03-06T07:53:20.199Z,97.43
2024-03-06T07:54:20.382Z,97.22
2024-03-06T07:55:20.563Z,96.81
2024-03-06T07:56:20.823Z,96.91
2024-03-06T07:57:20.917Z,96.81
2024-03-06T07:58:21.085Z,96.86
2024-03-06T07:59:21.317Z,96.60
2024-03-06T08:00:21.550Z,96.76
2024-03-06T08:01:21.776Z,97.07
2024-03-06T08:02:21.975Z,96.76
2024-03-06T08:03:22.106Z,96.55
2024-03-06T08:04:22.257Z,96.86
2024-03-06T08:05:22.464Z,96.81
2024-03-06T08:06:22.727Z,97.07
2024-03-06T08:07:22.818Z,96.61
2024-03-06T08:08:23.160Z,96.30
2024-03-06T08:09:23.301Z,95.99
2024-03-06T08:10:23.517Z,95.68
2024-03-06T08:11:23.731Z,95.95
2024-03-06T08:12:23.830Z,95.37
2024-03-06T08:13:24.139Z,95.57
2024-03-06T08:14:24.359Z,95.68
2024-03-06T08:15:24.651Z,95.99
2024-03-06T08:16:24.857Z,95.95
2024-03-06T08:17:25.000Z,95.43
2024-03-06T08:18:25.204Z,95.32
2024-03-06T08:19:25.345Z,95.12
2024-03-06T08:20:25.784Z,94.91
2024-03-06T08:21:25.681Z,95.18
2024-03-06T08:22:25.940Z,94.76
2024-03-06T08:23:26.198Z,94.45
2024-03-06T08:24:26.439Z,94.87
2024-03-06T08:25:26.646Z,94.97
2024-03-06T08:26:26.899Z,94.62
2024-03-06T08:27:27.015Z,94.51
2024-03-06T08:28:27.126Z,94.31
2024-03-06T08:29:27.402Z,94.16
2024-03-06T08:30:27.636Z,94.06
2024-03-06T08:31:27.861Z,94.31
2024-03-06T08:32:28.031Z,93.79
2024-03-06T08:33:28.263Z,93.74
2024-03-06T08:34:28.373Z,93.43
2024-03-06T08:35:28.697Z,93.64
2024-03-06T08:36:28.837Z,93.23
2024-03-06T08:37:29.001Z,93.54
2024-03-06T08:38:29.213Z,93.27
2024-03-06T08:39:29.341Z,93.64
2024-03-06T08:40:29.765Z,93.54
2024-03-06T08:41:29.765Z,93.49
2024-03-06T08:42:29.861Z,93.29
2024-03-06T08:43:30.061Z,92.57
2024-03-06T08:44:30.349Z,92.46
2024-03-06T08:45:30.605Z,92.67
2024-03-06T08:46:30.739Z,92.50
2024-03-06T08:47:31.073Z,92.55
2024-03-06T08:48:31.243Z,93.06
2024-03-06T08:49:31.364Z,93.27
2024-03-06T08:50:31.575Z,93.02
2024-03-06T08:51:31.887Z,92.61
2024-03-06T08:52:32.063Z,92.77
2024-03-06T08:53:32.288Z,92.36
2024-03-06T08:54:32.407Z,91.63
2024-03-06T08:55:32.561Z,91.94
2024-03-06T08:56:32.850Z,91.42
2024-03-06T08:57:32.839Z,91.49
2024-03-06T08:58:33.054Z,90.97
2024-03-06T08:59:33.313Z,90.70
2024-03-06T09:00:33.450Z,90.91
2024-03-06T09:01:33.658Z,90.91
2024-03-06T09:02:33.968Z,90.35
2024-03-06T09:03:34.073Z,90.39
2024-03-06T09:04:34.241Z,90.77
2024-03-06T09:05:34.447Z,90.04
2024-03-06T09:06:34.764Z,89.69
2024-03-06T09:07:34.991Z,88.96
2024-03-06T09:08:35.199Z,89.22
2024-03-06T09:09:35.262Z,88.92
2024-03-06T09:10:35.456Z,88.65
2024-03-06T09:11:35.829Z,88.51
2024-03-06T09:12:35.928Z,88.31
2024-03-06T09:13:36.118Z,88.24
2024-03-06T09:14:36.251Z,87.99
2024-03-06T09:15:36.428Z,86.71
2024-03-06T09:16:36.658Z,86.34
2024-03-06T09:17:37.003Z,86.20
2024-03-06T09:18:37.101Z,86.30
2024-03-06T09:19:38.240Z,86.05
2024-03-06T09:20:37.638Z,86.44
2024-03-06T09:21:37.790Z,86.57
2024-03-06T09:22:38.093Z,86.12
2024-03-06T09:23:38.472Z,85.19
2024-03-06T09:24:38.582Z,84.72
2024-03-06T09:25:38.758Z,85.13
2024-03-06T09:26:39.142Z,84.72
2024-03-06T09:27:39.320Z,85.17
2024-03-06T09:28:39.463Z,84.86
2024-03-06T09:29:39.679Z,84.92
2024-03-06T09:30:39.786Z,84.55
2024-03-06T09:31:40.017Z,84.65
2024-03-06T09:32:40.230Z,84.78
2024-03-06T09:33:40.492Z,83.75
2024-03-06T09:34:40.760Z,83.95
2024-03-06T09:35:41.091Z,83.61
2024-03-06T09:36:41.268Z,82.47
2024-03-06T09:37:41.539Z,82.71
2024-03-06T09:38:41.782Z,83.27
2024-03-06T09:39:41.892Z,83.48
2024-03-06T09:40:42.087Z,83.23
2024-03-06T09:41:42.437Z,82.82
2024-03-06T09:42:42.453Z,82.37
2024-03-06T09:43:42.806Z,81.48
2024-03-06T09:44:42.873Z,81.27
2024-03-06T09:45:42.998Z,81.82
2024-03-06T09:46:43.168Z,81.37
2024-03-06T09:47:43.500Z,80.96
2024-03-06T09:48:43.659Z,80.72
2024-03-06T09:49:43.824Z,80.51
2024-03-06T09:50:44.110Z,80.34
2024-03-06T09:51:44.337Z,80.76
2024-03-06T09:52:44.492Z,80.51
2024-03-06T09:53:44.738Z,80.00
2024-03-06T09:54:44.866Z,80.41
2024-03-06T09:55:45.056Z,80.44
2024-03-06T09:56:45.305Z,80.41
2024-03-06T09:57:45.393Z,80.44
2024-03-06T09:58:45.584Z,80.24
2024-03-06T09:59:45.852Z,80.44
2024-03-06T10:00:45.980Z,81.21
2024-03-06T10:01:46.267Z,81.37
2024-03-06T10:02:46.470Z,80.79
2024-03-06T10:03:46.592Z,79.07
2024-03-06T10:04:46.795Z,78.62
2024-03-06T10:05:46.978Z,77.59
2024-03-06T10:06:47.287Z,77.38
2024-03-06T10:07:47.435Z,77.14
2024-03-06T10:08:47.754Z,77.31
2024-03-06T10:09:47.896Z,76.35
2024-03-06T10:10:48.095Z,75.67
2024-03-06T10:11:48.397Z,76.45
2024-03-06T10:12:48.465Z,75.46
2024-03-06T10:13:48.652Z,74.50
2024-03-06T10:14:48.923Z,73.02
2024-03-06T10:15:49.011Z,72.75
2024-03-06T10:16:49.322Z,72.82
2024-03-06T10:17:49.554Z,71.48
2024-03-06T10:18:49.714Z,72.47
2024-03-06T10:19:49.961Z,73.27
2024-03-06T10:20:50.232Z,72.41
2024-03-06T10:21:50.467Z,72.06
2024-03-06T10:22:52.554Z,73.74
2024-03-06T10:23:50.868Z,72.99
2024-03-06T10:24:51.032Z,72.58
2024-03-06T10:25:51.179Z,72.55
2024-03-06T10:26:51.479Z,72.03
2024-03-06T10:27:51.559Z,71.21
2024-03-06T10:28:51.741Z,70.97
2024-03-06T10:29:51.955Z,70.87
2024-03-06T10:30:52.248Z,70.15
2024-03-06T10:31:52.402Z,70.32
2024-03-06T10:32:52.676Z,70.29
2024-03-06T10:33:52.782Z,71.38
2024-03-06T10:34:52.956Z,71.93
2024-03-06T10:35:53.247Z,72.31
2024-03-06T10:36:53.359Z,71.45
2024-03-06T10:37:53.543Z,73.78
2024-03-06T10:38:53.725Z,73.54
2024-03-06T10:39:53.924Z,72.48
2024-03-06T10:40:54.080Z,71.83
2024-03-06T10:41:54.330Z,71.69
2024-03-06T10:42:54.432Z,71.04
2024-03-06T10:43:54.631Z,69.85
2024-03-06T10:44:54.929Z,68.72
2024-03-06T10:45:55.005Z,70.26
2024-03-06T10:46:55.274Z,69.95
2024-03-06T10:47:55.632Z,70.87
2024-03-06T10:48:55.814Z,71.79
2024-03-06T10:49:55.737Z,71.69
2024-03-06T10:50:55.970Z,71.93
2024-03-06T10:51:56.172Z,73.13
2024-03-06T10:52:56.356Z,73.54
2024-03-06T10:53:56.575Z,73.44
2024-03-06T10:54:56.706Z,71.83
2024-03-06T10:55:56.922Z,70.05
2024-03-06T10:56:57.133Z,69.30
2024-03-06T10:57:57.318Z,68.59
2024-03-06T10:58:57.544Z,68.14
2024-03-06T10:59:57.712Z,69.81
2024-03-06T11:00:57.959Z,71.59
2024-03-06T11:01:58.143Z,70.43
2024-03-06T11:02:59.065Z,69.74
2024-03-06T11:03:58.482Z,69.27
2024-03-06T11:04:58.655Z,69.26
2024-03-06T11:06:00.727Z,70.39
2024-03-06T11:06:59.052Z,70.36
2024-03-06T11:07:59.271Z,69.43
2024-03-06T11:08:59.435Z,69.74
2024-03-06T11:09:59.637Z,69.91
2024-03-06T11:10:59.908Z,70.46
2024-03-06T11:12:00.180Z,70.50
2024-03-06T11:13:00.249Z,69.10
2024-03-06T11:14:00.493Z,67.67
2024-03-06T11:15:00.606Z,67.36
2024-03-06T11:16:00.782Z,66.78
2024-03-06T11:17:01.050Z,68.89
2024-03-06T11:18:03.218Z,69.74
2024-03-06T11:19:01.344Z,69.91
2024-03-06T11:20:02.022Z,71.72
2024-03-06T11:21:01.708Z,71.83
2024-03-06T11:22:01.937Z,72.10
2024-03-06T11:23:02.161Z,71.04
2024-03-06T11:24:04.633Z,70.53
2024-03-06T11:25:02.504Z,70.36
2024-03-06T11:26:02.716Z,71.11
2024-03-06T11:27:02.917Z,71.31
2024-03-06T11:28:03.097Z,69.91
2024-03-06T11:29:03.324Z,70.87
2024-03-06T11:30:04.872Z,70.87
2024-03-06T11:31:03.903Z,70.42
2024-03-06T11:32:04.101Z,71.14
2024-03-06T11:33:04.377Z,71.93
2024-03-06T11:34:04.385Z,71.59
2024-03-06T11:35:04.447Z,71.17
2024-03-06T11:36:05.224Z,70.76
2024-03-06T11:37:04.864Z,71.11
2024-03-06T11:38:05.046Z,71.38
2024-03-06T11:39:05.270Z,71.25
2024-03-06T11:40:05.425Z,70.76
2024-03-06T11:41:05.650Z,70.18
2024-03-06T11:42:05.881Z,70.15
2024-03-06T11:43:06.553Z,69.16
2024-03-06T11:44:06.212Z,69.27
2024-03-06T11:45:06.411Z,67.77
2024-03-06T11:46:06.620Z,66.48
2024-03-06T11:47:06.886Z,65.36
2024-03-06T11:48:07.165Z,65.14
2024-03-06T11:49:07.247Z,67.76
2024-03-06T11:50:07.607Z,69.02
2024-03-06T11:51:07.632Z,68.35
2024-03-06T11:52:07.874Z,67.86
2024-03-06T11:53:10.743Z,68.65
2024-03-06T11:54:08.171Z,68.92
2024-03-06T11:55:08.391Z,68.10
2024-03-06T11:56:08.782Z,68.24
2024-03-06T11:57:08.961Z,69.06
2024-03-06T11:58:09.039Z,68.82
2024-03-06T11:59:09.232Z,69.81
2024-03-06T12:00:09.315Z,68.90
2024-03-06T12:01:09.549Z,66.38
2024-03-06T12:02:09.764Z,65.80
2024-03-06T12:03:09.920Z,64.17
2024-03-06T12:04:10.133Z,64.94
2024-03-06T12:05:10.359Z,67.69
2024-03-06T12:06:10.519Z,68.38
2024-03-06T12:07:11.169Z,68.96
2024-03-06T12:08:10.953Z,68.68
2024-03-06T12:09:12.074Z,69.41
2024-03-06T12:10:11.321Z,67.60
2024-03-06T12:11:11.552Z,67.76
2024-03-06T12:12:12.399Z,69.47
2024-03-06T12:13:12.123Z,70.12
2024-03-06T12:14:12.155Z,70.39
2024-03-06T12:15:12.238Z,70.18
2024-03-06T12:16:12.432Z,69.64
2024-03-06T12:17:12.781Z,69.61
2024-03-06T12:18:13.004Z,69.34
2024-03-06T12:19:13.035Z,68.21
2024-03-06T12:20:13.257Z,67.36
2024-03-06T12:21:13.453Z,67.05
2024-03-06T12:22:13.654Z,66.89
2024-03-06T12:23:13.880Z,65.91
2024-03-06T12:24:14.033Z,64.74
2024-03-06T12:25:14.227Z,66.78
2024-03-06T12:26:14.501Z,65.98
2024-03-06T12:27:14.633Z,64.78
2024-03-06T12:28:14.820Z,64.84
2024-03-06T12:29:15.062Z,66.17
2024-03-06T12:30:15.228Z,65.58
2024-03-06T12:31:15.425Z,67.66
2024-03-06T12:32:15.686Z,68.04
2024-03-06T12:33:16.000Z,67.76
2024-03-06T12:34:16.015Z,67.86
2024-03-06T12:35:16.282Z,67.73
2024-03-06T12:36:16.452Z,68.21
2024-03-06T12:37:16.613Z,69.43
2024-03-06T12:38:16.783Z,68.76
2024-03-06T12:39:16.968Z,67.97
2024-03-06T12:40:17.155Z,68.62
2024-03-06T12:41:17.392Z,69.33
2024-03-06T12:42:17.542Z,69.47
2024-03-06T12:43:17.721Z,68.89
2024-03-06T12:44:17.930Z,68.27
2024-03-06T12:45:18.120Z,68.17
2024-03-06T12:46:18.285Z,67.94
2024-03-06T12:47:18.540Z,68.17
2024-03-06T12:48:18.728Z,68.86
2024-03-06T12:49:18.868Z,67.86
2024-03-06T12:50:19.115Z,68.85
2024-03-06T12:51:19.234Z,69.88
2024-03-06T12:52:19.438Z,69.64
2024-03-06T12:53:19.604Z,69.26
2024-03-06T12:54:19.760Z,69.98
2024-03-06T12:55:20.083Z,70.36
2024-03-06T12:56:20.281Z,70.63
2024-03-06T12:57:20.433Z,71.14
2024-03-06T12:58:20.617Z,70.87
2024-03-06T12:59:20.867Z,70.29
2024-03-06T13:00:21.017Z,68.76
2024-03-06T13:01:21.466Z,69.40
2024-03-06T13:02:21.418Z,69.64
2024-03-06T13:03:21.572Z,69.64
2024-03-06T13:04:21.729Z,69.74
2024-03-06T13:05:22.626Z,69.30
2024-03-06T13:06:22.067Z,68.96
2024-03-06T13:07:22.274Z,68.76
2024-03-06T13:08:22.418Z,68.90
2024-03-06T13:09:22.631Z,67.16
2024-03-06T13:10:22.767Z,67.43
2024-03-06T13:11:22.974Z,68.11
2024-03-06T13:12:23.196Z,67.57
2024-03-06T13:13:23.355Z,68.04
2024-03-06T13:14:23.543Z,69.23
2024-03-06T13:15:23.795Z,69.64
2024-03-06T13:16:23.908Z,69.40
2024-03-06T13:17:24.140Z,68.48
2024-03-06T13:18:24.313Z,68.14
2024-03-06T13:19:24.457Z,68.48
2024-03-06T13:20:24.689Z,68.41
2024-03-06T13:21:24.843Z,68.04
2024-03-06T13:22:25.059Z,68.65
2024-03-06T13:23:25.288Z,68.35
2024-03-06T13:24:25.442Z,68.69
2024-03-06T13:25:25.614Z,67.43
2024-03-06T13:26:27.199Z,68.99
2024-03-06T13:27:26.021Z,68.86
2024-03-06T13:28:26.209Z,67.60
2024-03-06T13:29:26.432Z,67.49
2024-03-06T13:30:26.597Z,68.14
2024-03-06T13:31:26.808Z,68.21
2024-03-06T13:32:27.076Z,67.64
2024-03-06T13:33:27.238Z,66.34
2024-03-06T13:34:27.361Z,66.20
2024-03-06T13:35:27.608Z,66.44
2024-03-06T13:36:28.634Z,66.64
2024-03-06T13:37:27.951Z,66.85
2024-03-06T13:38:28.166Z,67.08
2024-03-06T13:39:28.373Z,67.16
2024-03-06T13:40:28.521Z,66.54
2024-03-06T13:41:29.672Z,66.92
2024-03-06T13:42:28.939Z,66.50
2024-03-06T13:43:29.046Z,67.66
2024-03-06T13:44:29.319Z,67.76
2024-03-06T13:45:29.434Z,67.52
2024-03-06T13:46:29.620Z,67.52
2024-03-06T13:47:29.975Z,67.63
2024-03-06T13:48:30.033Z,67.70
2024-03-06T13:49:30.191Z,66.82
2024-03-06T13:50:30.459Z,65.66